Portada
METAR-TAF:

METAR-TAF

Aeroports :

Aeroport de Girona - Costa Brava

Girona, Espanya

latitud: 41-54N, longitud: 002-46E, altitud: 143 m

Observació

L'informe es va fer fa 38 minuts, a les 07:30 UTC
Vent 5 kt del Nord-Est, variant entre Nord i Est
Temperatura 24°C
Humitat 78%
Pressió 1016 hPa
Visibilitat 10 km o més
sense núvols per sota de 1500 mi sense presència de cumulonimbus.

METAR: LEGE 060730Z 05005KT 010V080 CAVOK 24/20 Q1016

Hora: 10:08 (08:08 UTC)

Pronòstic

L'informe es va fer fa 3 hores i 8 minuts, a les 05:00 UTC
Pronòstic vàlid del 06 a les 06 UTC al 07 a les 06 UTC
Vent 3 kt amb direcció variable
Visibilitat 10 km o més
Escasses núvols a una alçada de 2500 ft
Evolucionant progressivament
l' 06 a les 10 UTC al 06 a les 12 UTC
Vent 10 kt del Sud
Evolucionant progressivament
l' 06 a les 18 UTC al 06 a les 20 UTC
Vent 3 kt amb direcció variable

TAF: LEGE 060500Z 0606/0706 VRB03KT 9999 FEW025 TX32/0613Z TN19/0606Z BECMG 0610/0612 18010KT BECMG 0618/0620 VRB03KT

Observacions i pronòstics meteorològics de més de 4000 aeroports (METAR i TAF).

Les estacions disponibles són els punts grocs i vermells al mapa.

Posi el ratolí al punt desitjat per veure el nom de l'estació.

Feu clic per veure les observacions i els pronòstics meteorològics.

Per canviar el mapa: feu clic els botons verds amb una creu de color negre per apropar; al botó verd amb un guió per allunyar la imatge; o en les fletxes verdes per a mapes adjacents.


METAR-TAF: